sensor_id;sensor_type;location;lat;lon;timestamp;P1;durP1;ratioP1;P2;durP2;ratioP2
12681;SDS011;6405;59.208;18.216;2023-07-30T00:01:55;5.63;;;2.70;;
12681;SDS011;6405;59.208;18.216;2023-07-30T00:04:21;9.17;;;3.20;;
12681;SDS011;6405;59.208;18.216;2023-07-30T00:06:47;6.07;;;2.73;;
12681;SDS011;6405;59.208;18.216;2023-07-30T00:09:12;4.07;;;2.87;;
12681;SDS011;6405;59.208;18.216;2023-07-30T00:11:38;5.17;;;3.00;;
12681;SDS011;6405;59.208;18.216;2023-07-30T00:14:04;3.00;;;2.50;;
12681;SDS011;6405;59.208;18.216;2023-07-30T00:16:30;4.03;;;2.90;;
12681;SDS011;6405;59.208;18.216;2023-07-30T00:18:55;4.40;;;2.80;;
12681;SDS011;6405;59.208;18.216;2023-07-30T00:21:21;3.77;;;2.93;;
12681;SDS011;6405;59.208;18.216;2023-07-30T00:23:47;2.77;;;2.50;;
12681;SDS011;6405;59.208;18.216;2023-07-30T00:26:13;3.40;;;2.73;;
12681;SDS011;6405;59.208;18.216;2023-07-30T00:28:39;2.80;;;2.47;;
12681;SDS011;6405;59.208;18.216;2023-07-30T00:31:05;5.30;;;2.70;;
12681;SDS011;6405;59.208;18.216;2023-07-30T00:33:31;3.47;;;2.50;;
12681;SDS011;6405;59.208;18.216;2023-07-30T00:35:56;5.07;;;3.23;;
12681;SDS011;6405;59.208;18.216;2023-07-30T00:38:22;4.70;;;2.77;;
12681;SDS011;6405;59.208;18.216;2023-07-30T00:40:48;7.27;;;2.73;;
12681;SDS011;6405;59.208;18.216;2023-07-30T00:43:14;4.40;;;3.40;;
12681;SDS011;6405;59.208;18.216;2023-07-30T00:45:41;3.20;;;2.50;;
12681;SDS011;6405;59.208;18.216;2023-07-30T00:48:09;3.37;;;2.77;;
12681;SDS011;6405;59.208;18.216;2023-07-30T00:50:39;4.97;;;2.77;;
12681;SDS011;6405;59.208;18.216;2023-07-30T00:53:05;4.07;;;3.10;;
12681;SDS011;6405;59.208;18.216;2023-07-30T00:55:34;3.57;;;2.93;;
12681;SDS011;6405;59.208;18.216;2023-07-30T00:58:00;4.20;;;2.60;;
12681;SDS011;6405;59.208;18.216;2023-07-30T01:00:27;3.20;;;2.80;;
12681;SDS011;6405;59.208;18.216;2023-07-30T01:02:55;3.93;;;2.70;;
12681;SDS011;6405;59.208;18.216;2023-07-30T01:05:21;3.37;;;3.00;;
12681;SDS011;6405;59.208;18.216;2023-07-30T01:07:46;5.00;;;2.90;;
12681;SDS011;6405;59.208;18.216;2023-07-30T01:10:12;5.07;;;2.80;;
12681;SDS011;6405;59.208;18.216;2023-07-30T01:12:38;3.67;;;3.10;;
12681;SDS011;6405;59.208;18.216;2023-07-30T01:15:05;3.53;;;2.70;;
12681;SDS011;6405;59.208;18.216;2023-07-30T01:17:33;4.73;;;2.97;;
12681;SDS011;6405;59.208;18.216;2023-07-30T01:19:59;3.33;;;2.83;;
12681;SDS011;6405;59.208;18.216;2023-07-30T01:22:24;9.10;;;3.50;;
12681;SDS011;6405;59.208;18.216;2023-07-30T01:24:50;3.90;;;3.17;;
12681;SDS011;6405;59.208;18.216;2023-07-30T01:27:22;3.40;;;2.80;;
12681;SDS011;6405;59.208;18.216;2023-07-30T01:32:31;4.40;;;3.17;;
12681;SDS011;6405;59.208;18.216;2023-07-30T01:34:57;4.23;;;3.10;;
12681;SDS011;6405;59.208;18.216;2023-07-30T01:37:24;5.57;;;3.13;;
12681;SDS011;6405;59.208;18.216;2023-07-30T01:39:51;4.07;;;3.20;;
12681;SDS011;6405;59.208;18.216;2023-07-30T01:42:17;5.67;;;3.47;;
12681;SDS011;6405;59.208;18.216;2023-07-30T01:44:43;4.13;;;3.10;;
12681;SDS011;6405;59.208;18.216;2023-07-30T01:47:09;4.30;;;2.77;;
12681;SDS011;6405;59.208;18.216;2023-07-30T01:49:34;5.27;;;2.90;;
12681;SDS011;6405;59.208;18.216;2023-07-30T01:52:00;5.17;;;3.20;;
12681;SDS011;6405;59.208;18.216;2023-07-30T01:54:26;4.53;;;3.10;;
12681;SDS011;6405;59.208;18.216;2023-07-30T01:56:52;4.30;;;3.07;;
12681;SDS011;6405;59.208;18.216;2023-07-30T01:59:18;4.70;;;3.40;;
12681;SDS011;6405;59.208;18.216;2023-07-30T02:01:44;3.30;;;2.90;;
12681;SDS011;6405;59.208;18.216;2023-07-30T02:04:10;5.37;;;2.93;;
12681;SDS011;6405;59.208;18.216;2023-07-30T02:06:36;5.50;;;3.23;;
12681;SDS011;6405;59.208;18.216;2023-07-30T02:09:01;5.50;;;2.87;;
12681;SDS011;6405;59.208;18.216;2023-07-30T02:11:27;6.03;;;3.30;;
12681;SDS011;6405;59.208;18.216;2023-07-30T02:13:53;5.10;;;3.03;;
12681;SDS011;6405;59.208;18.216;2023-07-30T02:16:19;5.93;;;3.53;;
12681;SDS011;6405;59.208;18.216;2023-07-30T02:18:45;5.20;;;2.77;;
12681;SDS011;6405;59.208;18.216;2023-07-30T02:21:12;6.00;;;3.00;;
12681;SDS011;6405;59.208;18.216;2023-07-30T02:23:38;4.50;;;3.20;;
12681;SDS011;6405;59.208;18.216;2023-07-30T02:26:04;4.40;;;3.10;;
12681;SDS011;6405;59.208;18.216;2023-07-30T02:28:29;4.07;;;3.10;;
12681;SDS011;6405;59.208;18.216;2023-07-30T02:30:55;7.47;;;3.63;;
12681;SDS011;6405;59.208;18.216;2023-07-30T02:33:21;4.10;;;2.80;;
12681;SDS011;6405;59.208;18.216;2023-07-30T02:35:46;3.60;;;3.10;;
12681;SDS011;6405;59.208;18.216;2023-07-30T02:38:12;3.43;;;2.80;;
12681;SDS011;6405;59.208;18.216;2023-07-30T02:40:38;3.13;;;2.83;;
12681;SDS011;6405;59.208;18.216;2023-07-30T02:43:04;5.87;;;3.60;;
12681;SDS011;6405;59.208;18.216;2023-07-30T02:45:29;3.63;;;3.23;;
12681;SDS011;6405;59.208;18.216;2023-07-30T02:47:55;5.30;;;3.73;;
12681;SDS011;6405;59.208;18.216;2023-07-30T02:50:21;5.23;;;4.20;;
12681;SDS011;6405;59.208;18.216;2023-07-30T02:52:47;6.07;;;3.07;;
12681;SDS011;6405;59.208;18.216;2023-07-30T02:55:12;4.97;;;3.37;;
12681;SDS011;6405;59.208;18.216;2023-07-30T02:57:38;4.07;;;3.20;;
12681;SDS011;6405;59.208;18.216;2023-07-30T03:00:04;4.63;;;2.90;;
12681;SDS011;6405;59.208;18.216;2023-07-30T03:02:30;4.40;;;3.67;;
12681;SDS011;6405;59.208;18.216;2023-07-30T03:04:56;4.33;;;3.00;;
12681;SDS011;6405;59.208;18.216;2023-07-30T03:07:22;4.77;;;3.17;;
12681;SDS011;6405;59.208;18.216;2023-07-30T03:09:48;5.30;;;3.30;;
12681;SDS011;6405;59.208;18.216;2023-07-30T03:12:14;4.80;;;3.53;;
12681;SDS011;6405;59.208;18.216;2023-07-30T03:14:39;4.97;;;3.40;;
12681;SDS011;6405;59.208;18.216;2023-07-30T03:17:05;4.33;;;3.33;;
12681;SDS011;6405;59.208;18.216;2023-07-30T03:19:31;3.97;;;3.37;;
12681;SDS011;6405;59.208;18.216;2023-07-30T03:21:57;6.40;;;3.37;;
12681;SDS011;6405;59.208;18.216;2023-07-30T03:24:23;5.10;;;3.23;;
12681;SDS011;6405;59.208;18.216;2023-07-30T03:26:48;4.03;;;3.67;;
12681;SDS011;6405;59.208;18.216;2023-07-30T03:29:15;4.57;;;3.53;;
12681;SDS011;6405;59.208;18.216;2023-07-30T03:31:41;3.90;;;3.50;;
12681;SDS011;6405;59.208;18.216;2023-07-30T03:34:07;5.57;;;3.23;;
12681;SDS011;6405;59.208;18.216;2023-07-30T03:36:32;7.40;;;3.93;;
12681;SDS011;6405;59.208;18.216;2023-07-30T03:38:58;5.20;;;3.70;;
12681;SDS011;6405;59.208;18.216;2023-07-30T03:41:24;4.10;;;3.70;;
12681;SDS011;6405;59.208;18.216;2023-07-30T03:43:50;5.60;;;3.57;;
12681;SDS011;6405;59.208;18.216;2023-07-30T03:46:16;5.00;;;4.17;;
12681;SDS011;6405;59.208;18.216;2023-07-30T03:48:42;5.03;;;3.77;;
12681;SDS011;6405;59.208;18.216;2023-07-30T03:51:08;6.23;;;3.83;;
12681;SDS011;6405;59.208;18.216;2023-07-30T03:53:34;5.27;;;3.77;;
12681;SDS011;6405;59.208;18.216;2023-07-30T03:56:00;6.27;;;4.57;;
12681;SDS011;6405;59.208;18.216;2023-07-30T03:58:26;5.80;;;4.20;;
12681;SDS011;6405;59.208;18.216;2023-07-30T04:00:51;5.87;;;3.57;;
12681;SDS011;6405;59.208;18.216;2023-07-30T04:03:17;4.77;;;3.47;;
12681;SDS011;6405;59.208;18.216;2023-07-30T04:05:43;4.67;;;3.87;;
12681;SDS011;6405;59.208;18.216;2023-07-30T04:08:09;4.97;;;3.60;;
12681;SDS011;6405;59.208;18.216;2023-07-30T04:10:34;4.57;;;4.00;;
12681;SDS011;6405;59.208;18.216;2023-07-30T04:13:01;4.00;;;3.60;;
12681;SDS011;6405;59.208;18.216;2023-07-30T04:15:27;7.17;;;3.97;;
12681;SDS011;6405;59.208;18.216;2023-07-30T04:17:53;5.00;;;3.70;;
12681;SDS011;6405;59.208;18.216;2023-07-30T04:20:19;4.20;;;3.80;;
12681;SDS011;6405;59.208;18.216;2023-07-30T04:22:44;5.90;;;3.73;;
12681;SDS011;6405;59.208;18.216;2023-07-30T04:25:10;4.83;;;4.07;;
12681;SDS011;6405;59.208;18.216;2023-07-30T04:27:36;5.13;;;3.67;;
12681;SDS011;6405;59.208;18.216;2023-07-30T04:30:03;5.43;;;3.77;;
12681;SDS011;6405;59.208;18.216;2023-07-30T04:32:32;5.07;;;3.57;;
12681;SDS011;6405;59.208;18.216;2023-07-30T04:34:57;4.70;;;3.93;;
12681;SDS011;6405;59.208;18.216;2023-07-30T04:37:23;4.13;;;3.20;;
12681;SDS011;6405;59.208;18.216;2023-07-30T04:39:49;3.87;;;3.47;;
12681;SDS011;6405;59.208;18.216;2023-07-30T04:42:15;5.60;;;3.93;;
12681;SDS011;6405;59.208;18.216;2023-07-30T04:44:41;4.90;;;3.60;;
12681;SDS011;6405;59.208;18.216;2023-07-30T04:47:06;6.00;;;3.80;;
12681;SDS011;6405;59.208;18.216;2023-07-30T04:49:32;5.43;;;4.00;;
12681;SDS011;6405;59.208;18.216;2023-07-30T04:51:58;5.03;;;3.90;;
12681;SDS011;6405;59.208;18.216;2023-07-30T04:54:24;4.10;;;3.67;;
12681;SDS011;6405;59.208;18.216;2023-07-30T04:56:50;5.93;;;3.97;;
12681;SDS011;6405;59.208;18.216;2023-07-30T04:59:16;4.67;;;4.13;;
12681;SDS011;6405;59.208;18.216;2023-07-30T05:01:42;5.03;;;4.30;;
12681;SDS011;6405;59.208;18.216;2023-07-30T05:04:07;7.57;;;4.87;;
12681;SDS011;6405;59.208;18.216;2023-07-30T05:06:33;6.73;;;4.93;;
12681;SDS011;6405;59.208;18.216;2023-07-30T05:08:59;6.47;;;4.77;;
12681;SDS011;6405;59.208;18.216;2023-07-30T05:11:25;7.50;;;4.83;;
12681;SDS011;6405;59.208;18.216;2023-07-30T05:13:51;8.43;;;5.83;;
12681;SDS011;6405;59.208;18.216;2023-07-30T05:16:16;9.23;;;5.90;;
12681;SDS011;6405;59.208;18.216;2023-07-30T05:18:42;7.13;;;5.50;;
12681;SDS011;6405;59.208;18.216;2023-07-30T05:21:08;5.83;;;5.17;;
12681;SDS011;6405;59.208;18.216;2023-07-30T05:23:34;8.00;;;6.13;;
12681;SDS011;6405;59.208;18.216;2023-07-30T05:25:59;7.50;;;5.90;;
12681;SDS011;6405;59.208;18.216;2023-07-30T05:28:25;6.80;;;4.80;;
12681;SDS011;6405;59.208;18.216;2023-07-30T05:30:51;6.83;;;5.23;;
12681;SDS011;6405;59.208;18.216;2023-07-30T05:33:17;5.53;;;4.60;;
12681;SDS011;6405;59.208;18.216;2023-07-30T05:35:43;5.53;;;4.93;;
12681;SDS011;6405;59.208;18.216;2023-07-30T05:38:09;6.47;;;4.87;;
12681;SDS011;6405;59.208;18.216;2023-07-30T05:40:35;5.87;;;4.57;;
12681;SDS011;6405;59.208;18.216;2023-07-30T05:43:01;7.13;;;4.40;;
12681;SDS011;6405;59.208;18.216;2023-07-30T05:45:26;10.37;;;4.83;;
12681;SDS011;6405;59.208;18.216;2023-07-30T05:47:52;5.17;;;4.67;;
12681;SDS011;6405;59.208;18.216;2023-07-30T05:50:18;8.50;;;4.33;;
12681;SDS011;6405;59.208;18.216;2023-07-30T05:52:44;6.27;;;4.67;;
12681;SDS011;6405;59.208;18.216;2023-07-30T05:55:09;4.80;;;4.30;;
12681;SDS011;6405;59.208;18.216;2023-07-30T05:57:36;5.70;;;4.50;;
12681;SDS011;6405;59.208;18.216;2023-07-30T06:00:02;4.47;;;3.97;;
12681;SDS011;6405;59.208;18.216;2023-07-30T06:02:28;4.80;;;4.23;;
12681;SDS011;6405;59.208;18.216;2023-07-30T06:04:54;4.50;;;3.87;;
12681;SDS011;6405;59.208;18.216;2023-07-30T06:07:20;5.80;;;4.10;;
12681;SDS011;6405;59.208;18.216;2023-07-30T06:09:45;6.13;;;4.47;;
12681;SDS011;6405;59.208;18.216;2023-07-30T06:12:11;4.77;;;3.90;;
12681;SDS011;6405;59.208;18.216;2023-07-30T06:14:37;4.03;;;3.63;;
12681;SDS011;6405;59.208;18.216;2023-07-30T06:17:03;5.07;;;4.00;;
12681;SDS011;6405;59.208;18.216;2023-07-30T06:19:29;5.90;;;3.97;;
12681;SDS011;6405;59.208;18.216;2023-07-30T06:21:54;6.27;;;3.67;;
12681;SDS011;6405;59.208;18.216;2023-07-30T06:24:20;4.37;;;3.77;;
12681;SDS011;6405;59.208;18.216;2023-07-30T06:26:46;6.47;;;3.90;;
12681;SDS011;6405;59.208;18.216;2023-07-30T06:29:12;6.37;;;4.47;;
12681;SDS011;6405;59.208;18.216;2023-07-30T06:31:38;4.20;;;3.80;;
12681;SDS011;6405;59.208;18.216;2023-07-30T06:34:03;5.13;;;3.87;;
12681;SDS011;6405;59.208;18.216;2023-07-30T06:36:29;3.63;;;3.33;;
12681;SDS011;6405;59.208;18.216;2023-07-30T06:38:55;5.43;;;3.70;;
12681;SDS011;6405;59.208;18.216;2023-07-30T06:41:21;4.40;;;4.00;;
12681;SDS011;6405;59.208;18.216;2023-07-30T06:43:47;5.17;;;3.63;;
12681;SDS011;6405;59.208;18.216;2023-07-30T06:46:13;5.37;;;4.23;;
12681;SDS011;6405;59.208;18.216;2023-07-30T06:48:38;4.27;;;3.87;;
12681;SDS011;6405;59.208;18.216;2023-07-30T06:51:09;6.03;;;3.90;;
12681;SDS011;6405;59.208;18.216;2023-07-30T06:53:35;3.97;;;3.47;;
12681;SDS011;6405;59.208;18.216;2023-07-30T06:56:01;5.63;;;3.70;;
12681;SDS011;6405;59.208;18.216;2023-07-30T06:58:28;4.93;;;4.10;;
12681;SDS011;6405;59.208;18.216;2023-07-30T07:00:54;5.40;;;3.60;;
12681;SDS011;6405;59.208;18.216;2023-07-30T07:03:19;4.57;;;3.53;;
12681;SDS011;6405;59.208;18.216;2023-07-30T07:05:51;3.67;;;3.30;;
12681;SDS011;6405;59.208;18.216;2023-07-30T07:08:21;3.53;;;3.23;;
12681;SDS011;6405;59.208;18.216;2023-07-30T07:10:47;4.00;;;3.30;;
12681;SDS011;6405;59.208;18.216;2023-07-30T07:13:13;4.50;;;3.47;;
12681;SDS011;6405;59.208;18.216;2023-07-30T07:15:43;4.50;;;3.67;;
12681;SDS011;6405;59.208;18.216;2023-07-30T07:18:09;3.83;;;3.30;;
12681;SDS011;6405;59.208;18.216;2023-07-30T07:20:35;4.30;;;3.60;;
12681;SDS011;6405;59.208;18.216;2023-07-30T07:23:02;3.53;;;3.13;;
12681;SDS011;6405;59.208;18.216;2023-07-30T07:25:28;3.83;;;3.13;;
12681;SDS011;6405;59.208;18.216;2023-07-30T07:27:54;3.60;;;3.30;;
12681;SDS011;6405;59.208;18.216;2023-07-30T07:30:20;3.30;;;2.87;;
12681;SDS011;6405;59.208;18.216;2023-07-30T07:32:45;3.97;;;3.50;;
12681;SDS011;6405;59.208;18.216;2023-07-30T07:35:15;3.30;;;2.93;;
12681;SDS011;6405;59.208;18.216;2023-07-30T07:37:45;3.37;;;2.77;;
12681;SDS011;6405;59.208;18.216;2023-07-30T07:40:11;3.73;;;3.13;;
12681;SDS011;6405;59.208;18.216;2023-07-30T07:42:37;3.93;;;3.17;;
12681;SDS011;6405;59.208;18.216;2023-07-30T07:45:04;3.57;;;3.27;;
12681;SDS011;6405;59.208;18.216;2023-07-30T07:47:31;3.90;;;3.43;;
12681;SDS011;6405;59.208;18.216;2023-07-30T07:49:56;5.93;;;3.40;;
12681;SDS011;6405;59.208;18.216;2023-07-30T07:52:22;4.87;;;3.63;;
12681;SDS011;6405;59.208;18.216;2023-07-30T07:54:48;4.83;;;3.40;;
12681;SDS011;6405;59.208;18.216;2023-07-30T07:57:14;3.57;;;3.27;;
12681;SDS011;6405;59.208;18.216;2023-07-30T07:59:39;4.93;;;3.50;;
12681;SDS011;6405;59.208;18.216;2023-07-30T08:02:06;4.93;;;3.60;;
12681;SDS011;6405;59.208;18.216;2023-07-30T08:04:32;4.80;;;3.53;;
12681;SDS011;6405;59.208;18.216;2023-07-30T08:06:58;3.93;;;3.43;;
12681;SDS011;6405;59.208;18.216;2023-07-30T08:09:28;4.83;;;3.60;;
12681;SDS011;6405;59.208;18.216;2023-07-30T08:11:54;3.80;;;3.50;;
12681;SDS011;6405;59.208;18.216;2023-07-30T08:14:20;4.27;;;3.27;;
12681;SDS011;6405;59.208;18.216;2023-07-30T08:16:45;4.17;;;3.37;;
12681;SDS011;6405;59.208;18.216;2023-07-30T08:19:11;3.73;;;3.23;;
12681;SDS011;6405;59.208;18.216;2023-07-30T08:21:37;6.30;;;3.40;;
12681;SDS011;6405;59.208;18.216;2023-07-30T08:24:03;4.57;;;3.17;;
12681;SDS011;6405;59.208;18.216;2023-07-30T08:26:29;4.23;;;3.20;;
12681;SDS011;6405;59.208;18.216;2023-07-30T08:28:55;4.03;;;3.63;;
12681;SDS011;6405;59.208;18.216;2023-07-30T08:31:21;5.47;;;3.90;;
12681;SDS011;6405;59.208;18.216;2023-07-30T08:33:46;4.47;;;3.17;;
12681;SDS011;6405;59.208;18.216;2023-07-30T08:36:12;3.20;;;2.97;;
12681;SDS011;6405;59.208;18.216;2023-07-30T08:38:38;4.00;;;3.23;;
12681;SDS011;6405;59.208;18.216;2023-07-30T08:41:04;4.37;;;3.33;;
12681;SDS011;6405;59.208;18.216;2023-07-30T08:43:29;4.67;;;3.13;;
12681;SDS011;6405;59.208;18.216;2023-07-30T08:45:55;3.80;;;3.03;;
12681;SDS011;6405;59.208;18.216;2023-07-30T08:48:21;2.90;;;2.70;;
12681;SDS011;6405;59.208;18.216;2023-07-30T08:50:48;3.60;;;3.00;;
12681;SDS011;6405;59.208;18.216;2023-07-30T08:53:14;4.53;;;3.23;;
12681;SDS011;6405;59.208;18.216;2023-07-30T08:55:40;3.77;;;3.00;;
12681;SDS011;6405;59.208;18.216;2023-07-30T08:58:06;3.33;;;3.03;;
12681;SDS011;6405;59.208;18.216;2023-07-30T09:00:34;3.90;;;3.30;;
12681;SDS011;6405;59.208;18.216;2023-07-30T09:03:03;3.87;;;3.37;;
12681;SDS011;6405;59.208;18.216;2023-07-30T09:05:29;3.13;;;2.90;;
12681;SDS011;6405;59.208;18.216;2023-07-30T09:07:56;3.53;;;3.23;;
12681;SDS011;6405;59.208;18.216;2023-07-30T09:10:23;3.50;;;3.20;;
12681;SDS011;6405;59.208;18.216;2023-07-30T09:12:54;3.17;;;2.90;;
12681;SDS011;6405;59.208;18.216;2023-07-30T09:15:30;3.43;;;3.13;;
12681;SDS011;6405;59.208;18.216;2023-07-30T09:18:01;3.67;;;3.30;;
12681;SDS011;6405;59.208;18.216;2023-07-30T09:20:27;4.47;;;3.40;;
12681;SDS011;6405;59.208;18.216;2023-07-30T09:22:55;5.17;;;3.30;;
12681;SDS011;6405;59.208;18.216;2023-07-30T09:25:22;4.00;;;3.67;;
12681;SDS011;6405;59.208;18.216;2023-07-30T09:27:49;5.43;;;4.03;;
12681;SDS011;6405;59.208;18.216;2023-07-30T09:30:21;3.37;;;3.10;;
12681;SDS011;6405;59.208;18.216;2023-07-30T09:32:51;4.00;;;3.50;;
12681;SDS011;6405;59.208;18.216;2023-07-30T09:35:20;3.90;;;3.60;;
12681;SDS011;6405;59.208;18.216;2023-07-30T09:37:47;4.00;;;3.70;;
12681;SDS011;6405;59.208;18.216;2023-07-30T09:40:14;4.90;;;3.73;;
12681;SDS011;6405;59.208;18.216;2023-07-30T09:42:45;4.23;;;3.83;;
12681;SDS011;6405;59.208;18.216;2023-07-30T09:45:21;4.60;;;4.10;;
12681;SDS011;6405;59.208;18.216;2023-07-30T09:47:52;4.40;;;4.00;;
12681;SDS011;6405;59.208;18.216;2023-07-30T09:50:19;3.50;;;3.20;;
12681;SDS011;6405;59.208;18.216;2023-07-30T09:52:45;5.00;;;4.60;;
12681;SDS011;6405;59.208;18.216;2023-07-30T09:55:11;4.63;;;3.90;;
12681;SDS011;6405;59.208;18.216;2023-07-30T09:57:37;5.10;;;4.20;;
12681;SDS011;6405;59.208;18.216;2023-07-30T10:00:04;4.80;;;4.27;;
12681;SDS011;6405;59.208;18.216;2023-07-30T10:02:38;4.47;;;3.77;;
12681;SDS011;6405;59.208;18.216;2023-07-30T10:05:12;5.03;;;3.80;;
12681;SDS011;6405;59.208;18.216;2023-07-30T10:07:42;4.20;;;3.80;;
12681;SDS011;6405;59.208;18.216;2023-07-30T10:10:14;5.70;;;4.00;;
12681;SDS011;6405;59.208;18.216;2023-07-30T10:12:40;4.40;;;4.00;;
12681;SDS011;6405;59.208;18.216;2023-07-30T10:15:08;4.50;;;4.10;;
12681;SDS011;6405;59.208;18.216;2023-07-30T10:17:34;4.43;;;4.03;;
12681;SDS011;6405;59.208;18.216;2023-07-30T10:22:54;4.37;;;4.07;;
12681;SDS011;6405;59.208;18.216;2023-07-30T10:25:25;4.90;;;4.20;;
12681;SDS011;6405;59.208;18.216;2023-07-30T10:27:56;4.60;;;4.20;;
12681;SDS011;6405;59.208;18.216;2023-07-30T10:30:27;4.50;;;4.10;;
12681;SDS011;6405;59.208;18.216;2023-07-30T10:35:42;4.90;;;4.40;;
12681;SDS011;6405;59.208;18.216;2023-07-30T10:40:40;4.80;;;4.40;;
12681;SDS011;6405;59.208;18.216;2023-07-30T10:43:16;4.80;;;4.27;;
12681;SDS011;6405;59.208;18.216;2023-07-30T10:45:48;5.03;;;4.40;;
12681;SDS011;6405;59.208;18.216;2023-07-30T10:48:15;4.87;;;4.20;;
12681;SDS011;6405;59.208;18.216;2023-07-30T10:50:42;6.57;;;4.43;;
12681;SDS011;6405;59.208;18.216;2023-07-30T10:53:08;4.90;;;4.50;;
12681;SDS011;6405;59.208;18.216;2023-07-30T10:55:34;5.37;;;4.00;;
12681;SDS011;6405;59.208;18.216;2023-07-30T10:58:00;4.93;;;4.10;;
12681;SDS011;6405;59.208;18.216;2023-07-30T11:00:26;4.53;;;4.13;;
12681;SDS011;6405;59.208;18.216;2023-07-30T11:02:53;4.57;;;4.17;;
12681;SDS011;6405;59.208;18.216;2023-07-30T11:05:19;4.93;;;3.90;;
12681;SDS011;6405;59.208;18.216;2023-07-30T11:07:51;4.90;;;4.50;;
12681;SDS011;6405;59.208;18.216;2023-07-30T11:10:17;5.00;;;4.50;;
12681;SDS011;6405;59.208;18.216;2023-07-30T11:12:43;4.57;;;4.00;;
12681;SDS011;6405;59.208;18.216;2023-07-30T11:15:09;4.70;;;3.93;;
12681;SDS011;6405;59.208;18.216;2023-07-30T11:17:35;6.60;;;4.17;;
12681;SDS011;6405;59.208;18.216;2023-07-30T11:20:01;4.93;;;3.57;;
12681;SDS011;6405;59.208;18.216;2023-07-30T11:22:33;4.20;;;3.80;;
12681;SDS011;6405;59.208;18.216;2023-07-30T11:25:00;4.73;;;3.80;;
12681;SDS011;6405;59.208;18.216;2023-07-30T11:27:49;4.53;;;4.13;;
12681;SDS011;6405;59.208;18.216;2023-07-30T11:30:16;5.77;;;3.80;;
12681;SDS011;6405;59.208;18.216;2023-07-30T11:32:42;4.23;;;3.77;;
12681;SDS011;6405;59.208;18.216;2023-07-30T11:35:11;4.33;;;3.93;;
12681;SDS011;6405;59.208;18.216;2023-07-30T11:37:40;5.03;;;3.83;;
12681;SDS011;6405;59.208;18.216;2023-07-30T11:40:10;5.80;;;3.60;;
12681;SDS011;6405;59.208;18.216;2023-07-30T11:42:36;4.30;;;3.90;;
12681;SDS011;6405;59.208;18.216;2023-07-30T11:45:19;3.60;;;3.30;;
12681;SDS011;6405;59.208;18.216;2023-07-30T11:47:46;5.47;;;4.00;;
12681;SDS011;6405;59.208;18.216;2023-07-30T11:50:12;4.47;;;4.00;;
12681;SDS011;6405;59.208;18.216;2023-07-30T11:52:54;4.67;;;3.90;;
12681;SDS011;6405;59.208;18.216;2023-07-30T11:55:21;4.83;;;4.03;;
12681;SDS011;6405;59.208;18.216;2023-07-30T11:57:48;5.23;;;3.83;;
12681;SDS011;6405;59.208;18.216;2023-07-30T12:00:14;5.00;;;4.60;;
12681;SDS011;6405;59.208;18.216;2023-07-30T12:02:40;5.67;;;4.27;;
12681;SDS011;6405;59.208;18.216;2023-07-30T12:05:06;4.80;;;4.30;;
12681;SDS011;6405;59.208;18.216;2023-07-30T12:07:39;5.33;;;4.80;;
12681;SDS011;6405;59.208;18.216;2023-07-30T12:10:09;4.60;;;3.97;;
12681;SDS011;6405;59.208;18.216;2023-07-30T12:12:36;4.93;;;4.30;;
12681;SDS011;6405;59.208;18.216;2023-07-30T12:15:02;5.23;;;3.77;;
12681;SDS011;6405;59.208;18.216;2023-07-30T12:17:36;4.93;;;4.23;;
12681;SDS011;6405;59.208;18.216;2023-07-30T12:20:02;4.80;;;4.30;;
12681;SDS011;6405;59.208;18.216;2023-07-30T12:22:31;6.67;;;4.17;;
12681;SDS011;6405;59.208;18.216;2023-07-30T12:24:59;5.13;;;3.97;;
12681;SDS011;6405;59.208;18.216;2023-07-30T12:27:25;7.90;;;3.83;;
12681;SDS011;6405;59.208;18.216;2023-07-30T12:29:52;4.57;;;4.03;;
12681;SDS011;6405;59.208;18.216;2023-07-30T12:32:17;5.00;;;4.23;;
12681;SDS011;6405;59.208;18.216;2023-07-30T12:34:43;4.40;;;4.00;;
12681;SDS011;6405;59.208;18.216;2023-07-30T12:37:09;4.83;;;4.13;;
12681;SDS011;6405;59.208;18.216;2023-07-30T12:39:35;6.47;;;4.37;;
12681;SDS011;6405;59.208;18.216;2023-07-30T12:42:00;4.40;;;4.00;;
12681;SDS011;6405;59.208;18.216;2023-07-30T12:44:26;6.53;;;3.93;;
12681;SDS011;6405;59.208;18.216;2023-07-30T12:46:52;4.23;;;3.70;;
12681;SDS011;6405;59.208;18.216;2023-07-30T12:49:18;5.10;;;3.90;;
12681;SDS011;6405;59.208;18.216;2023-07-30T12:51:44;7.27;;;4.20;;
12681;SDS011;6405;59.208;18.216;2023-07-30T12:54:10;4.27;;;3.87;;
12681;SDS011;6405;59.208;18.216;2023-07-30T12:56:35;4.63;;;3.90;;
12681;SDS011;6405;59.208;18.216;2023-07-30T12:59:01;5.87;;;4.10;;
12681;SDS011;6405;59.208;18.216;2023-07-30T13:01:27;4.20;;;3.87;;
12681;SDS011;6405;59.208;18.216;2023-07-30T13:03:53;4.87;;;4.00;;
12681;SDS011;6405;59.208;18.216;2023-07-30T13:06:22;4.93;;;4.30;;
12681;SDS011;6405;59.208;18.216;2023-07-30T13:08:48;5.40;;;4.27;;
12681;SDS011;6405;59.208;18.216;2023-07-30T13:11:13;4.67;;;3.93;;
12681;SDS011;6405;59.208;18.216;2023-07-30T13:13:39;5.10;;;4.00;;
12681;SDS011;6405;59.208;18.216;2023-07-30T13:16:05;5.43;;;3.77;;
12681;SDS011;6405;59.208;18.216;2023-07-30T13:18:31;4.37;;;4.03;;
12681;SDS011;6405;59.208;18.216;2023-07-30T13:20:56;4.07;;;3.67;;
12681;SDS011;6405;59.208;18.216;2023-07-30T13:23:22;4.70;;;4.30;;
12681;SDS011;6405;59.208;18.216;2023-07-30T13:25:50;4.77;;;3.80;;
12681;SDS011;6405;59.208;18.216;2023-07-30T13:28:16;5.27;;;4.37;;
12681;SDS011;6405;59.208;18.216;2023-07-30T13:30:42;4.27;;;3.87;;
12681;SDS011;6405;59.208;18.216;2023-07-30T13:33:07;4.17;;;3.77;;
12681;SDS011;6405;59.208;18.216;2023-07-30T13:35:33;4.50;;;4.10;;
12681;SDS011;6405;59.208;18.216;2023-07-30T13:37:59;3.80;;;3.50;;
12681;SDS011;6405;59.208;18.216;2023-07-30T13:40:24;3.63;;;3.33;;
12681;SDS011;6405;59.208;18.216;2023-07-30T13:42:50;5.03;;;3.73;;
12681;SDS011;6405;59.208;18.216;2023-07-30T13:45:16;5.77;;;4.20;;
12681;SDS011;6405;59.208;18.216;2023-07-30T13:47:42;4.10;;;3.80;;
12681;SDS011;6405;59.208;18.216;2023-07-30T13:50:07;5.43;;;4.20;;
12681;SDS011;6405;59.208;18.216;2023-07-30T13:52:33;4.10;;;3.80;;
12681;SDS011;6405;59.208;18.216;2023-07-30T13:54:59;4.70;;;3.63;;
12681;SDS011;6405;59.208;18.216;2023-07-30T13:57:25;3.87;;;3.57;;
12681;SDS011;6405;59.208;18.216;2023-07-30T13:59:51;3.77;;;3.10;;
12681;SDS011;6405;59.208;18.216;2023-07-30T14:02:18;4.43;;;4.03;;
12681;SDS011;6405;59.208;18.216;2023-07-30T14:04:44;5.03;;;3.67;;
12681;SDS011;6405;59.208;18.216;2023-07-30T14:07:09;3.87;;;3.57;;
12681;SDS011;6405;59.208;18.216;2023-07-30T14:09:35;4.13;;;3.60;;
12681;SDS011;6405;59.208;18.216;2023-07-30T14:12:04;4.63;;;4.10;;
12681;SDS011;6405;59.208;18.216;2023-07-30T14:14:31;4.30;;;3.90;;
12681;SDS011;6405;59.208;18.216;2023-07-30T14:16:58;3.90;;;3.60;;
12681;SDS011;6405;59.208;18.216;2023-07-30T14:19:23;4.57;;;4.17;;
12681;SDS011;6405;59.208;18.216;2023-07-30T14:21:49;3.87;;;3.57;;
12681;SDS011;6405;59.208;18.216;2023-07-30T14:24:15;4.50;;;3.50;;
12681;SDS011;6405;59.208;18.216;2023-07-30T14:26:41;4.37;;;3.97;;
12681;SDS011;6405;59.208;18.216;2023-07-30T14:29:07;4.70;;;3.97;;
12681;SDS011;6405;59.208;18.216;2023-07-30T14:31:32;4.60;;;4.10;;
12681;SDS011;6405;59.208;18.216;2023-07-30T14:33:58;4.70;;;4.30;;
12681;SDS011;6405;59.208;18.216;2023-07-30T14:36:24;4.13;;;3.83;;
12681;SDS011;6405;59.208;18.216;2023-07-30T14:38:49;4.47;;;4.17;;
12681;SDS011;6405;59.208;18.216;2023-07-30T14:41:15;4.17;;;3.77;;
12681;SDS011;6405;59.208;18.216;2023-07-30T14:43:41;4.63;;;4.17;;
12681;SDS011;6405;59.208;18.216;2023-07-30T14:46:06;3.93;;;3.50;;
12681;SDS011;6405;59.208;18.216;2023-07-30T14:48:38;3.87;;;3.57;;
12681;SDS011;6405;59.208;18.216;2023-07-30T14:51:08;4.60;;;4.20;;
12681;SDS011;6405;59.208;18.216;2023-07-30T14:53:35;4.03;;;3.67;;
12681;SDS011;6405;59.208;18.216;2023-07-30T14:56:01;4.63;;;4.03;;